Time;durP1;ratioP1;P1;durP2;ratioP2;P2;SDS_P1;SDS_P2;PMS_P1;PMS_P2;Temp;Humidity;BMP_temperature;BMP_pressure;BME280_temperature;BME280_humidity;BME280_pressure;Samples;Min_cycle;Max_cycle;Signal;HPM_P1;HPM_P2
2023/09/29 00:00:55;;;;;;;0.10;0.10;;;;;;;14.73;100.00;101420.44;5113025;28;20140;-45
2023/09/29 00:03:20;;;;;;;0.13;0.13;;;;;;;14.76;100.00;101414.44;5112037;28;20028;-40
2023/09/29 00:05:46;;;;;;;0.10;0.10;;;;;;;14.77;100.00;101417.06;5113033;28;20084;-42
2023/09/29 00:08:16;;;;;;;0.10;0.10;;;;;;;14.80;100.00;101418.84;5112752;28;20015;-41
2023/09/29 00:10:43;;;;;;;0.10;0.10;;;;;;;14.78;100.00;101411.03;5112250;28;20027;-40
2023/09/29 00:13:08;;;;;;;0.10;0.10;;;;;;;14.79;100.00;101412.75;5113162;28;20080;-40
2023/09/29 00:15:33;;;;;;;0.10;0.10;;;;;;;14.84;100.00;101417.19;5112804;28;20028;-41
2023/09/29 00:18:03;;;;;;;0.10;0.10;;;;;;;14.84;100.00;101419.78;5112299;28;20023;-40
2023/09/29 00:20:29;;;;;;;0.10;0.10;;;;;;;14.84;100.00;101419.78;5112583;28;20038;-44
2023/09/29 00:22:57;;;;;;;0.10;0.10;;;;;;;14.78;100.00;101416.22;5112796;28;20432;-42
2023/09/29 00:25:26;;;;;;;0.10;0.10;;;;;;;14.86;100.00;101412.88;5111454;28;20466;-42
2023/09/29 00:27:52;;;;;;;0.10;0.10;;;;;;;14.90;100.00;101414.69;5112949;28;20024;-40
2023/09/29 00:30:18;;;;;;;0.10;0.10;;;;;;;14.92;100.00;101411.28;5112952;28;20036;-40
2023/09/29 00:32:48;;;;;;;0.10;0.10;;;;;;;14.95;100.00;101413.06;5112067;28;20105;-41
2023/09/29 00:35:21;;;;;;;0.10;0.10;;;;;;;14.99;100.00;101409.72;5112407;28;20395;-42
2023/09/29 00:37:46;;;;;;;0.10;0.10;;;;;;;15.03;100.00;101405.44;5114626;28;20027;-48
2023/09/29 00:40:12;;;;;;;0.10;0.10;;;;;;;15.07;100.00;101410.75;5115554;28;20028;-40
2023/09/29 00:42:39;;;;;;;0.10;0.10;;;;;;;15.10;100.00;101408.19;5116651;28;20027;-44
2023/09/29 00:45:05;;;;;;;0.10;0.10;;;;;;;15.15;100.00;101400.50;5116458;28;20106;-41
2023/09/29 00:47:32;;;;;;;0.10;0.10;;;;;;;15.20;100.00;101404.06;5115304;28;20481;-41
2023/09/29 00:49:57;;;;;;;0.10;0.10;;;;;;;15.24;100.00;101399.81;5116231;28;20068;-45
2023/09/29 00:52:23;;;;;;;0.10;0.10;;;;;;;15.26;100.00;101393.81;5115423;28;20027;-45
2023/09/29 00:54:50;;;;;;;0.10;0.10;;;;;;;15.28;100.00;101391.25;5116147;28;20024;-44
2023/09/29 00:57:16;;;;;;;0.13;0.13;;;;;;;15.29;100.00;101395.59;5115614;28;20395;-40
2023/09/29 00:59:43;;;;;;;0.10;0.10;;;;;;;15.33;100.00;101393.94;5115305;28;20023;-42
2023/09/29 01:02:09;;;;;;;0.20;0.20;;;;;;;15.35;100.00;101392.22;5116303;28;20020;-44
2023/09/29 01:04:38;;;;;;;0.10;0.10;;;;;;;15.35;100.00;101400.91;5115786;28;20020;-44
2023/09/29 01:07:04;;;;;;;0.10;0.10;;;;;;;15.37;100.00;101391.41;5115283;28;20088;-44
2023/09/29 01:09:30;;;;;;;0.10;0.10;;;;;;;15.39;100.00;101394.03;5115772;28;20420;-41
2023/09/29 01:11:55;;;;;;;0.00;0.00;;;;;;;15.40;100.00;101390.59;5115973;28;20039;-43
2023/09/29 01:14:21;;;;;;;0.10;0.10;;;;;;;15.42;100.00;101381.97;5114771;28;20020;-43
2023/09/29 01:16:46;;;;;;;0.10;0.10;;;;;;;15.40;100.00;101380.19;5115788;28;20099;-43
2023/09/29 01:19:12;;;;;;;0.10;0.10;;;;;;;15.41;100.00;101382.81;5115415;28;20023;-44
2023/09/29 01:21:39;;;;;;;0.10;0.10;;;;;;;15.37;100.00;101382.75;5115087;28;20047;-42
2023/09/29 01:24:07;;;;;;;0.10;0.10;;;;;;;15.40;100.00;101373.28;5115834;28;20352;-45
2023/09/29 01:26:32;;;;;;;;;;;;;;;15.50;100.00;101366.53;5115717;28;20039;-44
2023/09/29 01:28:58;;;;;;;0.10;0.10;;;;;;;15.44;100.00;101367.31;5115032;28;19919;-45
2023/09/29 01:31:23;;;;;;;0.10;0.10;;;;;;;15.42;100.00;101357.72;5115268;28;20020;-42
2023/09/29 01:33:48;;;;;;;0.10;0.10;;;;;;;15.44;100.00;101354.31;5115371;28;20106;-42
2023/09/29 01:36:14;;;;;;;0.10;0.10;;;;;;;15.38;100.00;101356.81;5114562;28;20035;-44
2023/09/29 01:38:39;;;;;;;0.10;0.10;;;;;;;15.40;100.00;101355.13;5115510;28;20375;-42
2023/09/29 01:41:04;;;;;;;0.10;0.10;;;;;;;15.42;100.00;101348.22;5115395;28;20027;-44
2023/09/29 01:43:31;;;;;;;0.10;0.10;;;;;;;15.41;100.00;101340.41;5114218;28;20572;-45
2023/09/29 01:45:56;;;;;;;0.10;0.10;;;;;;;15.41;100.00;101341.25;5115223;28;20030;-45
2023/09/29 01:48:22;;;;;;;0.10;0.10;;;;;;;15.38;100.00;101337.75;5114197;28;20019;-44
2023/09/29 01:50:47;;;;;;;0.10;0.10;;;;;;;15.43;100.00;101344.78;5114287;28;20023;-45
2023/09/29 01:53:12;;;;;;;0.10;0.10;;;;;;;15.44;100.00;101336.13;5114951;28;20038;-43
2023/09/29 01:55:38;;;;;;;0.10;0.10;;;;;;;15.44;100.00;101338.72;5115128;28;20024;-41
2023/09/29 01:58:03;;;;;;;0.10;0.10;;;;;;;15.44;100.00;101323.16;5114054;28;20035;-43
2023/09/29 02:00:29;;;;;;;0.10;0.10;;;;;;;15.46;100.00;101324.03;5114555;28;20096;-40
2023/09/29 02:02:55;;;;;;;0.10;0.10;;;;;;;15.51;100.00;101325.84;5113985;28;20069;-44
2023/09/29 02:05:20;;;;;;;0.10;0.10;;;;;;;15.52;100.00;101327.56;5114305;28;20519;-43
2023/09/29 02:07:47;;;;;;;0.10;0.10;;;;;;;15.53;100.00;101318.94;5114977;28;20033;-42
2023/09/29 02:10:18;;;;;;;0.10;0.10;;;;;;;15.54;100.00;101316.38;5113746;28;20030;-45
2023/09/29 02:12:48;;;;;;;0.10;0.10;;;;;;;15.54;100.00;101318.97;5114764;28;20020;-41
2023/09/29 02:15:17;;;;;;;0.10;0.10;;;;;;;15.57;100.00;101321.63;5114321;28;20026;-45
2023/09/29 02:17:48;;;;;;;0.10;0.10;;;;;;;15.61;100.00;101325.16;5113807;28;20024;-44
2023/09/29 02:20:18;;;;;;;0.10;0.10;;;;;;;15.64;100.00;101328.66;5114294;28;20471;-40
2023/09/29 02:22:44;;;;;;;0.10;0.10;;;;;;;15.66;100.00;101331.31;5114859;28;20023;-41
2023/09/29 02:25:11;;;;;;;0.10;0.10;;;;;;;15.68;100.00;101327.00;5113607;28;20107;-42
2023/09/29 02:27:36;;;;;;;0.10;0.10;;;;;;;15.72;100.00;101314.94;5114294;28;20024;-41
2023/09/29 02:30:02;;;;;;;0.10;0.10;;;;;;;15.66;100.00;101318.31;5114261;28;20032;-45
2023/09/29 02:32:28;;;;;;;0.10;0.10;;;;;;;15.72;100.00;101310.59;5113167;28;20344;-42
2023/09/29 02:34:55;;;;;;;0.10;0.10;;;;;;;15.86;100.00;101309.97;5114596;28;20024;-42
2023/09/29 02:37:21;;;;;;;0.10;0.10;;;;;;;15.89;100.00;101310.88;5114164;28;20032;-42
2023/09/29 02:39:46;;;;;;;0.10;0.10;;;;;;;15.97;100.00;101305.78;5113549;28;20043;-41
2023/09/29 02:42:12;;;;;;;0.10;0.10;;;;;;;15.99;100.00;101300.66;5113895;28;20471;-42
2023/09/29 02:44:38;;;;;;;0.10;0.10;;;;;;;15.96;100.00;101288.47;5114053;28;20027;-46
2023/09/29 02:47:03;;;;;;;0.10;0.10;;;;;;;15.99;100.00;101288.50;5113390;28;20032;-45
2023/09/29 02:49:33;;;;;;;0.10;0.10;;;;;;;16.06;100.00;101279.94;5113787;28;20035;-42
2023/09/29 02:51:59;;;;;;;0.10;0.10;;;;;;;16.10;100.00;101276.53;5113311;28;20379;-40
2023/09/29 02:54:25;;;;;;;0.10;0.10;;;;;;;16.13;100.00;101292.16;5113651;28;20059;-42
2023/09/29 02:56:50;;;;;;;0.00;0.00;;;;;;;16.15;100.00;101293.91;5113694;28;20071;-45
2023/09/29 02:59:16;;;;;;;0.10;0.10;;;;;;;16.18;100.00;101283.53;5112599;28;20051;-45
2023/09/29 03:01:44;;;;;;;0.10;0.10;;;;;;;16.23;100.00;101271.47;5113871;28;20125;-43
2023/09/29 03:04:10;;;;;;;0.10;0.10;;;;;;;16.28;100.00;101275.00;5113948;28;20019;-45
2023/09/29 03:06:35;;;;;;;0.10;0.10;;;;;;;16.31;100.00;101269.88;5112618;28;20050;-43
2023/09/29 03:09:01;;;;;;;0.10;0.10;;;;;;;16.29;100.00;101268.97;5113869;28;20106;-45
2023/09/29 03:11:26;;;;;;;0.10;0.10;;;;;;;16.33;100.00;101264.69;5113369;28;20044;-43
2023/09/29 03:13:55;;;;;;;0.10;0.10;;;;;;;16.36;100.00;101262.09;5112768;28;20058;-44
2023/09/29 03:16:26;;;;;;;0.00;0.00;;;;;;;16.34;100.00;101269.91;5113496;28;20072;-43
2023/09/29 03:18:52;;;;;;;0.10;0.10;;;;;;;16.40;100.00;101269.13;5113639;28;20095;-44
2023/09/29 03:21:17;;;;;;;0.10;0.10;;;;;;;16.42;100.00;101273.50;5112573;28;20099;-43
2023/09/29 03:23:43;;;;;;;0.10;0.10;;;;;;;16.45;100.00;101263.09;5113524;28;20031;-44
2023/09/29 03:26:09;;;;;;;0.10;0.10;;;;;;;16.44;100.00;101266.56;5113566;28;20055;-45
2023/09/29 03:28:35;;;;;;;0.10;0.10;;;;;;;16.44;100.00;101263.94;5112338;28;20015;-43
2023/09/29 03:31:07;;;;;;;0.10;0.10;;;;;;;16.44;100.00;101250.94;5113560;28;20076;-44
2023/09/29 03:33:32;;;;;;;0.10;0.10;;;;;;;16.40;100.00;101243.97;5113174;28;20016;-46
2023/09/29 03:35:58;;;;;;;0.10;0.10;;;;;;;16.38;100.00;101244.81;5112666;28;20068;-41
2023/09/29 03:38:25;;;;;;;0.10;0.10;;;;;;;16.42;100.00;101241.38;5113010;28;20023;-42
2023/09/29 03:40:52;;;;;;;0.10;0.10;;;;;;;16.40;100.00;101235.31;5113209;28;20027;-44
2023/09/29 03:43:22;;;;;;;0.10;0.10;;;;;;;16.35;100.00;101224.81;5112244;28;20169;-42
2023/09/29 03:45:49;;;;;;;0.00;0.00;;;;;;;16.32;100.00;101217.00;5113297;28;20030;-42
2023/09/29 03:48:15;;;;;;;0.10;0.10;;;;;;;16.34;100.00;101217.00;5112090;28;20488;-40
2023/09/29 03:50:41;;;;;;;0.10;0.10;;;;;;;16.30;100.00;101226.50;5113138;28;20367;-41
2023/09/29 03:53:06;;;;;;;0.05;0.05;;;;;;;16.27;100.00;101219.53;5113320;28;20024;-44
2023/09/29 03:55:33;;;;;;;0.10;0.10;;;;;;;16.24;100.00;101221.22;5112003;28;20023;-42
2023/09/29 03:57:59;;;;;;;0.00;0.00;;;;;;;16.20;100.00;101225.50;5112998;28;20040;-44
2023/09/29 04:00:24;;;;;;;0.10;0.10;;;;;;;16.17;100.00;101214.22;5112972;28;20282;-41
2023/09/29 04:02:50;;;;;;;0.10;0.10;;;;;;;16.21;100.00;101223.78;5112413;28;20028;-40
2023/09/29 04:05:17;;;;;;;0.10;0.10;;;;;;;16.16;100.00;101215.06;5112895;28;20028;-41
2023/09/29 04:07:42;;;;;;;0.13;0.13;;;;;;;16.17;100.00;101203.81;5113111;28;20023;-41
2023/09/29 04:10:12;;;;;;;0.10;0.10;;;;;;;16.17;100.00;101198.63;5112164;28;20068;-41
2023/09/29 04:12:39;;;;;;;0.10;0.10;;;;;;;16.17;100.00;101196.00;5115038;28;20023;-40
2023/09/29 04:15:05;;;;;;;0.10;0.10;;;;;;;16.21;100.00;101203.00;5117164;28;20028;-41
2023/09/29 04:17:31;;;;;;;0.10;0.10;;;;;;;16.29;100.00;101201.34;5115907;28;20039;-41
2023/09/29 04:19:56;;;;;;;0.10;0.10;;;;;;;16.38;100.00;101209.25;5117073;28;20273;-42
2023/09/29 04:22:24;;;;;;;0.10;0.10;;;;;;;16.42;100.00;101198.03;5116617;28;20019;-40
2023/09/29 04:24:49;;;;;;;0.10;0.10;;;;;;;16.45;100.00;101199.81;5116040;28;20494;-41
2023/09/29 04:27:15;;;;;;;0.10;0.10;;;;;;;16.49;100.00;101195.47;5116337;28;20019;-41
2023/09/29 04:29:40;;;;;;;0.10;0.10;;;;;;;16.48;100.00;101188.56;5116860;28;20035;-41
2023/09/29 04:32:06;;;;;;;0.10;0.10;;;;;;;16.49;100.00;101179.88;5116119;28;20102;-40
2023/09/29 04:34:31;;;;;;;0.10;0.10;;;;;;;16.46;100.00;101192.00;5116658;28;20039;-41
2023/09/29 04:36:57;;;;;;;0.03;0.03;;;;;;;16.46;100.00;101191.13;5116676;28;20047;-40
2023/09/29 04:39:22;;;;;;;0.10;0.10;;;;;;;16.47;100.00;101187.66;5115439;28;20556;-40
2023/09/29 04:41:48;;;;;;;0.10;0.10;;;;;;;16.50;100.00;101187.72;5116775;28;20410;-40
2023/09/29 04:44:13;;;;;;;0.10;0.10;;;;;;;16.52;100.00;101187.72;5116231;28;20024;-40
2023/09/29 04:46:39;;;;;;;0.10;0.10;;;;;;;16.51;100.00;101172.97;5115498;28;20044;-40
2023/09/29 04:49:04;;;;;;;0.10;0.10;;;;;;;16.50;100.00;101172.09;5116429;28;20047;-40
2023/09/29 04:51:33;;;;;;;0.10;0.10;;;;;;;16.50;100.00;101179.03;5116053;28;20055;-40
2023/09/29 04:53:59;;;;;;;0.10;0.10;;;;;;;16.50;100.00;101176.41;5116231;28;20031;-42
2023/09/29 04:56:25;;;;;;;0.10;0.10;;;;;;;16.53;100.00;101182.53;5115862;28;20050;-41
2023/09/29 04:58:50;;;;;;;0.10;0.10;;;;;;;16.55;100.00;101180.84;5115487;28;20031;-41
2023/09/29 05:01:17;;;;;;;0.10;0.10;;;;;;;16.56;100.00;101185.16;5115684;28;20024;-43
2023/09/29 05:03:43;;;;;;;0.10;0.10;;;;;;;16.56;100.00;101185.16;5116113;28;20438;-44
2023/09/29 05:06:08;;;;;;;0.10;0.10;;;;;;;16.57;100.00;101183.44;5115223;28;20535;-44
2023/09/29 05:08:36;;;;;;;0.05;0.05;;;;;;;16.56;100.00;101181.69;5115663;28;20028;-44
2023/09/29 05:11:01;;;;;;;0.10;0.10;;;;;;;16.54;100.00;101173.88;5116046;28;20019;-44
2023/09/29 05:13:32;;;;;;;0.10;0.10;;;;;;;16.54;100.00;101173.00;5114632;28;20031;-44
2023/09/29 05:15:57;;;;;;;0.10;0.10;;;;;;;16.52;100.00;101161.72;5115941;28;20019;-45
2023/09/29 05:18:23;;;;;;;0.10;0.10;;;;;;;16.52;100.00;101164.31;5115520;28;20011;-44
2023/09/29 05:20:48;;;;;;;0.10;0.10;;;;;;;16.54;100.00;101165.19;5114887;28;20043;-42
2023/09/29 05:23:14;;;;;;;0.10;0.10;;;;;;;16.55;100.00;101159.13;5114749;28;20024;-45
2023/09/29 05:25:44;;;;;;;0.10;0.10;;;;;;;16.56;100.00;101155.69;5115209;28;20484;-41
2023/09/29 05:28:10;;;;;;;0.10;0.10;;;;;;;16.56;100.00;101158.28;5114880;28;20035;-42
2023/09/29 05:30:35;;;;;;;0.10;0.10;;;;;;;16.59;100.00;101160.91;5115190;28;20023;-43
2023/09/29 05:33:00;;;;;;;0.00;0.00;;;;;;;16.59;100.00;101155.69;5115497;28;20051;-43
2023/09/29 05:35:26;;;;;;;0.10;0.10;;;;;;;16.58;100.00;101153.97;5114222;28;20356;-40
2023/09/29 05:37:51;;;;;;;0.10;0.10;;;;;;;16.56;100.00;101160.88;5115395;28;20122;-45
2023/09/29 05:40:16;;;;;;;0.10;0.10;;;;;;;16.57;100.00;101157.44;5115129;28;20042;-43
2023/09/29 05:42:43;;;;;;;0.10;0.10;;;;;;;16.56;100.00;101160.88;5114390;28;20023;-41
2023/09/29 05:45:11;;;;;;;0.10;0.10;;;;;;;16.58;100.00;101159.19;5115157;28;20024;-44
2023/09/29 05:47:36;;;;;;;;;;;;;;;16.65;100.00;101163.56;5115432;28;20483;-43
2023/09/29 05:50:03;;;;;;;0.10;0.10;;;;;;;16.61;100.00;101159.19;5114248;28;19992;-43
2023/09/29 05:52:28;;;;;;;0.00;0.00;;;;;;;16.64;100.00;101159.22;5114764;28;20076;-43
2023/09/29 05:54:53;;;;;;;0.10;0.10;;;;;;;16.63;100.00;101155.75;5114479;28;20114;-41
2023/09/29 05:57:19;;;;;;;0.10;0.10;;;;;;;16.63;100.00;101167.91;5114385;28;20047;-43
2023/09/29 05:59:44;;;;;;;0.10;0.10;;;;;;;16.63;100.00;101167.91;5115109;28;20100;-43
2023/09/29 06:02:09;;;;;;;0.10;0.10;;;;;;;16.63;100.00;101157.50;5114041;28;20023;-40
2023/09/29 06:04:35;;;;;;;0.10;0.10;;;;;;;16.64;100.00;101154.00;5114372;28;20067;-46
2023/09/29 06:07:00;;;;;;;0.10;0.10;;;;;;;16.66;100.00;101165.31;5114743;28;20076;-44
2023/09/29 06:09:26;;;;;;;0.10;0.10;;;;;;;16.70;100.00;101161.88;5113763;28;20023;-44
2023/09/29 06:11:51;;;;;;;0.10;0.10;;;;;;;16.74;100.00;101168.84;5114848;28;20098;-44
2023/09/29 06:14:17;;;;;;;0.10;0.10;;;;;;;16.76;100.00;101174.94;5114435;28;20051;-40
2023/09/29 06:16:42;;;;;;;0.20;0.10;;;;;;;16.76;100.00;101174.09;5113717;28;20028;-41
2023/09/29 06:19:07;;;;;;;0.10;0.10;;;;;;;16.83;100.00;101177.63;5114990;28;20039;-42
2023/09/29 06:21:33;;;;;;;0.10;0.10;;;;;;;16.91;100.00;101183.78;5114113;28;20031;-45
2023/09/29 06:23:58;;;;;;;0.10;0.10;;;;;;;16.98;100.00;101180.38;5113454;28;20051;-44
2023/09/29 06:26:23;;;;;;;0.10;0.10;;;;;;;17.07;100.00;101180.47;5113900;28;20474;-44
2023/09/29 06:28:49;;;;;;;0.10;0.10;;;;;;;17.13;100.00;101173.56;5114324;28;20032;-44
2023/09/29 06:31:14;;;;;;;0.10;0.10;;;;;;;17.17;100.00;101164.91;5113213;28;20387;-44
2023/09/29 06:33:39;;;;;;;0.10;0.10;;;;;;;17.23;100.00;101171.03;5114232;28;20043;-42
2023/09/29 06:36:05;;;;;;;0.10;0.10;;;;;;;17.30;100.00;101174.56;5113638;28;20471;-42
2023/09/29 06:38:31;;;;;;;0.08;0.08;;;;;;;17.34;100.00;101168.50;5112972;28;20074;-43
2023/09/29 06:40:58;;;;;;;0.10;0.10;;;;;;;17.40;100.00;101175.47;5114291;28;20114;-43
2023/09/29 06:43:23;;;;;;;0.10;0.10;;;;;;;17.48;100.00;101196.38;5113934;28;20384;-42
2023/09/29 06:45:49;;;;;;;0.10;0.10;;;;;;;17.50;100.00;101181.63;5113247;28;20579;-44
2023/09/29 06:48:15;;;;;;;0.00;0.00;;;;;;;17.55;100.00;101183.41;5113690;28;20422;-44
2023/09/29 06:50:40;;;;;;;0.03;0.03;;;;;;;17.60;100.00;101186.91;5113908;28;20034;-45
2023/09/29 06:53:06;;;;;;;0.10;0.10;;;;;;;17.65;100.00;101183.44;5113254;28;20382;-41
2023/09/29 06:55:31;;;;;;;0.00;0.00;;;;;;;17.71;100.00;101186.09;5113784;28;20201;-44
2023/09/29 06:57:58;;;;;;;0.10;0.10;;;;;;;17.72;100.00;101185.25;5113705;28;20050;-46
2023/09/29 07:00:24;;;;;;;;;;;;;;;17.80;100.00;101191.34;5113170;28;20043;-43
2023/09/29 07:02:49;;;;;;;0.10;0.10;;;;;;;17.79;100.00;101194.81;5113722;28;20354;-41
2023/09/29 07:05:15;;;;;;;0.10;0.10;;;;;;;17.79;100.00;101197.41;5112488;28;20092;-43
2023/09/29 07:07:40;;;;;;;0.10;0.10;;;;;;;17.83;100.00;101193.09;5113807;28;20479;-43
2023/09/29 07:10:06;;;;;;;0.10;0.10;;;;;;;17.86;100.00;101198.34;5113582;28;20035;-46
2023/09/29 07:12:32;;;;;;;0.00;0.00;;;;;;;17.87;100.00;101194.84;5112727;28;20134;-40
2023/09/29 07:14:57;;;;;;;0.10;0.10;;;;;;;17.87;100.00;101190.53;5113645;28;20024;-42
2023/09/29 07:17:23;;;;;;;0.10;0.10;;;;;;;17.90;100.00;101200.09;5113214;28;20084;-43
2023/09/29 07:19:48;;;;;;;0.00;0.00;;;;;;;17.95;100.00;101198.44;5112518;28;20055;-40
2023/09/29 07:22:14;;;;;;;0.10;0.10;;;;;;;17.99;100.00;101200.19;5113186;28;20030;-45
2023/09/29 07:24:41;;;;;;;0.10;0.10;;;;;;;18.08;100.00;101199.34;5113462;28;20031;-42
2023/09/29 07:27:08;;;;;;;0.10;0.10;;;;;;;18.16;100.00;101195.03;5112377;28;20427;-42
2023/09/29 07:29:34;;;;;;;0.10;0.10;;;;;;;18.25;100.00;101202.00;5113241;28;20028;-42
2023/09/29 07:31:59;;;;;;;0.10;0.10;;;;;;;18.34;100.00;101206.41;5113488;28;20367;-42
2023/09/29 07:34:27;;;;;;;0.10;0.10;;;;;;;18.43;100.00;101196.84;5112281;28;20023;-44
2023/09/29 07:36:53;;;;;;;0.10;0.10;;;;;;;18.54;100.00;101203.81;5113428;28;20035;-44
2023/09/29 07:39:18;;;;;;;0.10;0.10;;;;;;;18.68;100.00;101204.75;5112949;28;20089;-44
2023/09/29 07:41:43;;;;;;;0.03;0.03;;;;;;;18.81;100.00;101203.03;5112504;28;20039;-46
2023/09/29 07:44:09;;;;;;;0.05;0.05;;;;;;;18.98;100.00;101199.56;5113299;28;20031;-41
2023/09/29 07:46:37;;;;;;;0.05;0.05;;;;;;;19.14;100.00;101213.53;5112845;28;20062;-44
2023/09/29 07:49:03;;;;;;;0.00;0.00;;;;;;;19.21;100.00;101207.41;5116604;28;20024;-43
2023/09/29 07:51:29;;;;;;;0.00;0.00;;;;;;;19.29;100.00;101210.91;5117263;28;20034;-41
2023/09/29 07:53:56;;;;;;;0.10;0.10;;;;;;;19.38;100.00;101212.63;5117473;28;20102;-45
2023/09/29 07:56:21;;;;;;;0.10;0.10;;;;;;;19.46;100.00;101212.59;5116146;28;20043;-42
2023/09/29 07:58:46;;;;;;;0.00;0.00;;;;;;;19.52;100.00;101215.22;5117328;28;20379;-41
2023/09/29 08:01:12;;;;;;;0.00;0.00;;;;;;;19.53;100.00;101222.19;5116807;28;20081;-42
2023/09/29 08:03:37;;;;;;;0.08;0.08;;;;;;;19.58;100.00;101217.81;5116303;28;20496;-45
2023/09/29 08:06:03;;;;;;;0.10;0.10;;;;;;;19.63;100.00;101213.47;5117269;28;20158;-45
2023/09/29 08:08:28;;;;;;;0.00;0.00;;;;;;;19.72;100.00;101223.88;5116457;28;20089;-44
2023/09/29 08:10:54;;;;;;;0.05;0.05;;;;;;;19.85;100.00;101226.53;5117141;28;20451;-44
2023/09/29 08:13:19;;;;;;;0.00;0.00;;;;;;;19.96;100.00;101227.38;5116700;28;20027;-43
2023/09/29 08:15:45;;;;;;;0.00;0.00;;;;;;;20.06;100.00;101228.19;5116174;28;20016;-44
2023/09/29 08:18:11;;;;;;;0.00;0.00;;;;;;;20.04;100.00;101227.34;5116832;28;20034;-41
2023/09/29 08:20:37;;;;;;;0.08;0.08;;;;;;;20.04;100.00;101232.56;5116809;28;20023;-41
2023/09/29 08:23:02;;;;;;;0.00;0.00;;;;;;;20.02;100.00;101235.16;5115975;28;20080;-44
2023/09/29 08:25:29;;;;;;;0.00;0.00;;;;;;;20.09;100.00;101243.00;5116450;28;20022;-43
2023/09/29 08:27:56;;;;;;;0.00;0.00;;;;;;;20.17;100.00;101249.97;5116779;28;20088;-45
2023/09/29 08:30:21;;;;;;;0.00;0.00;;;;;;;20.20;100.00;101249.94;5115681;28;20106;-43
2023/09/29 08:32:50;;;;;;;0.00;0.00;;;;;;;20.19;100.00;101242.09;5116479;28;20469;-43
2023/09/29 08:35:15;;;;;;;0.00;0.00;;;;;;;20.11;100.00;101254.34;5116492;28;20024;-42
2023/09/29 08:37:42;;;;;;;0.00;0.00;;;;;;;20.12;100.00;101256.09;5115695;28;20041;-44
2023/09/29 08:40:12;;;;;;;0.00;0.00;;;;;;;20.14;100.00;101273.53;5116383;28;20459;-44
2023/09/29 08:42:38;;;;;;;0.10;0.10;;;;;;;20.16;100.00;101263.91;5116430;28;20020;-44
2023/09/29 08:45:11;;;;;;;0.00;0.00;;;;;;;20.23;100.00;101272.59;5115474;28;20444;-45
2023/09/29 08:47:40;;;;;;;0.00;0.00;;;;;;;20.30;100.00;101268.25;5116542;28;20035;-44
2023/09/29 08:50:08;;;;;;;0.00;0.00;;;;;;;20.28;100.00;101270.84;5116319;28;20027;-41
2023/09/29 08:52:35;;;;;;;0.00;0.00;;;;;;;20.32;100.00;101279.56;5115311;28;20027;-44
2023/09/29 08:55:04;;;;;;;0.00;0.00;;;;;;;20.36;100.00;101289.13;5116295;28;20065;-44
2023/09/29 08:57:30;;;;;;;0.10;0.00;;;;;;;20.45;100.00;101280.38;5115453;28;20050;-43
2023/09/29 08:59:56;;;;;;;0.00;0.00;;;;;;;20.56;100.00;101273.34;5115180;28;20028;-43
2023/09/29 09:02:24;;;;;;;0.00;0.00;;;;;;;20.66;100.00;101275.03;5115840;28;20043;-45
2023/09/29 09:04:50;;;;;;;0.00;0.00;;;;;;;20.69;100.00;101277.63;5115374;28;20110;-45
2023/09/29 09:07:15;;;;;;;0.00;0.00;;;;;;;20.76;100.00;101275.00;5115687;28;20483;-42
2023/09/29 09:09:49;;;;;;;0.00;0.00;;;;;;;20.88;100.00;101286.28;5115975;28;20394;-41
2023/09/29 09:12:14;;;;;;;0.00;0.00;;;;;;;20.93;100.00;101291.50;5114737;28;20032;-44
2023/09/29 09:14:41;;;;;;;0.00;0.00;;;;;;;20.92;100.00;101287.16;5116013;28;20039;-42
2023/09/29 09:17:07;;;;;;;0.00;0.00;;;;;;;21.07;100.00;101288.81;5115949;28;20020;-45
2023/09/29 09:19:43;;;;;;;0.10;0.10;;;;;;;21.07;100.00;101298.41;5114739;28;20023;-44
2023/09/29 09:22:15;;;;;;;0.00;0.00;;;;;;;20.89;100.00;101298.50;5115858;28;20265;-42
2023/09/29 09:24:40;;;;;;;0.00;0.00;;;;;;;20.81;100.00;101304.66;5115678;28;20424;-43
2023/09/29 09:27:05;;;;;;;0.00;0.00;;;;;;;20.49;100.00;101305.66;5114668;28;20455;-42
2023/09/29 09:29:38;;;;;;;0.00;0.00;;;;;;;20.26;100.00;101306.63;5115423;28;20042;-42
2023/09/29 09:32:06;;;;;;;0.03;0.03;;;;;;;19.96;100.00;101323.28;5115562;28;20031;-43
2023/09/29 09:34:37;;;;;;;0.00;0.00;;;;;;;19.66;100.00;101315.41;5114746;28;20036;-44
2023/09/29 09:37:05;;;;;;;0.00;0.00;;;;;;;19.53;100.00;101317.16;5115425;28;20023;-41
2023/09/29 09:39:33;;;;;;;0.00;0.00;;;;;;;19.42;100.00;101316.31;5115140;28;20043;-45
2023/09/29 09:41:59;;;;;;;0.00;0.00;;;;;;;19.32;100.00;101317.19;5114811;28;20019;-41
2023/09/29 09:44:26;;;;;;;0.00;0.00;;;;;;;19.27;100.00;101317.16;5114819;28;20531;-43
2023/09/29 09:47:04;;;;;;;0.00;0.00;;;;;;;19.32;100.00;101319.78;5115279;28;20036;-44
2023/09/29 09:49:48;;;;;;;0.00;0.00;;;;;;;19.39;100.00;101319.81;5114921;28;20023;-44
2023/09/29 09:52:23;;;;;;;0.00;0.00;;;;;;;19.42;100.00;101327.63;5114987;28;20024;-45
2023/09/29 09:54:52;;;;;;;0.00;0.00;;;;;;;19.55;100.00;101332.88;5114341;28;20473;-43
2023/09/29 09:57:38;;;;;;;0.10;0.10;;;;;;;19.71;100.00;101320.66;5114585;28;20122;-45
2023/09/29 10:00:12;;;;;;;0.00;0.00;;;;;;;19.69;100.00;101325.91;5114879;28;20015;-45
2023/09/29 10:02:51;;;;;;;0.00;0.00;;;;;;;19.74;100.00;101339.84;5113967;28;20459;-44
2023/09/29 10:05:22;;;;;;;0.00;0.00;;;;;;;19.89;100.00;101338.13;5114669;28;20032;-42
2023/09/29 10:07:53;;;;;;;0.03;0.03;;;;;;;19.98;100.00;101342.47;5114980;28;20031;-41
2023/09/29 10:10:42;;;;;;;0.10;0.10;;;;;;;20.21;100.00;101334.56;5113057;28;20047;-45
2023/09/29 10:13:11;;;;;;;0.10;0.10;;;;;;;20.27;100.00;101339.78;5101496;28;20032;-43
2023/09/29 10:15:40;;;;;;;0.00;0.00;;;;;;;20.28;100.00;101336.28;5113976;28;20540;-44
2023/09/29 10:18:19;;;;;;;0.00;0.00;;;;;;;20.29;100.00;101340.63;5114521;28;20039;-42
2023/09/29 10:21:00;;;;;;;0.00;0.00;;;;;;;20.38;100.00;101343.22;5114561;28;20026;-44
2023/09/29 10:23:26;;;;;;;0.00;0.00;;;;;;;20.38;100.00;101343.22;5113604;28;20020;-44
2023/09/29 10:25:59;;;;;;;0.00;0.00;;;;;;;20.45;100.00;101349.34;5114492;28;20028;-44
2023/09/29 10:28:36;;;;;;;0.00;0.00;;;;;;;20.54;100.00;101353.66;5114170;28;20065;-45
2023/09/29 10:31:13;;;;;;;0.00;0.00;;;;;;;20.53;100.00;101346.69;5113488;28;20535;-45
2023/09/29 10:33:52;;;;;;;;;;;;;;;20.69;100.00;101348.34;5114802;28;20034;-45
2023/09/29 10:36:19;;;;;;;0.00;0.00;;;;;;;20.48;100.00;101358.94;5114007;28;20262;-43
2023/09/29 10:38:46;;;;;;;0.00;0.00;;;;;;;20.44;100.00;101365.03;5114321;28;20026;-45
2023/09/29 10:41:13;;;;;;;0.00;0.00;;;;;;;20.31;100.00;101366.81;5114051;28;20065;-41
2023/09/29 10:43:42;;;;;;;0.00;0.00;;;;;;;20.24;100.00;101358.09;5113532;28;20084;-44
2023/09/29 10:46:08;;;;;;;0.08;0.08;;;;;;;20.17;100.00;101364.25;5113922;28;20020;-45
2023/09/29 10:48:42;;;;;;;0.08;0.08;;;;;;;20.15;100.00;101366.84;5113827;28;20106;-43
2023/09/29 10:51:08;;;;;;;0.00;0.00;;;;;;;20.13;100.00;101367.72;5112865;28;20039;-45
2023/09/29 10:53:36;;;;;;;0.00;0.00;;;;;;;20.09;100.00;101376.44;5113415;28;20479;-44
2023/09/29 10:56:03;;;;;;;0.00;0.00;;;;;;;19.98;100.00;101379.94;5113897;28;20478;-45
2023/09/29 10:58:36;;;;;;;;;;;;;;;20.14;100.00;101380.81;5113190;28;20431;-44
2023/09/29 11:01:01;;;;;;;0.00;0.00;;;;;;;20.03;100.00;101391.28;5114009;28;19938;-45
2023/09/29 11:03:27;;;;;;;0.00;0.00;;;;;;;20.00;100.00;101398.25;5113599;28;20459;-45
2023/09/29 11:05:55;;;;;;;0.00;0.00;;;;;;;20.07;100.00;101393.03;5112918;28;20094;-43
2023/09/29 11:08:32;;;;;;;0.00;0.00;;;;;;;20.16;100.00;101384.28;5113426;28;20050;-41
2023/09/29 11:10:59;;;;;;;0.10;0.10;;;;;;;20.47;100.00;101385.97;5113561;28;20034;-45
2023/09/29 11:13:26;;;;;;;0.10;0.10;;;;;;;21.05;100.00;101398.84;5112390;28;20470;-46
2023/09/29 11:15:52;;;;;;;0.10;0.10;;;;;;;21.69;100.00;101399.38;5113717;28;20102;-46
2023/09/29 11:18:30;;;;;;;0.00;0.00;;;;;;;22.01;100.00;101392.97;5113276;28;20310;-45